Time;durP1;ratioP1;P1;durP2;ratioP2;P2;SDS_P1;SDS_P2;PMS_P1;PMS_P2;Temp;Humidity;BMP_temperature;BMP_pressure;BME280_temperature;BME280_humidity;BME280_pressure;Samples;Min_cycle;Max_cycle;Signal;HPM_P1;HPM_P2
2022/08/05 00:01:12;;;;;;;9.70;3.35;;;19.30;99.90;;;;;;5095652;28;20020;-69
2022/08/05 00:03:38;;;;;;;8.52;3.53;;;19.30;99.90;;;;;;5095083;28;20419;-67
2022/08/05 00:06:03;;;;;;;6.38;2.78;;;19.30;99.90;;;;;;5094994;28;20020;-69
2022/08/05 00:08:29;;;;;;;9.60;3.15;;;19.20;99.90;;;;;;5095521;28;20040;-67
2022/08/05 00:10:55;;;;;;;11.25;3.67;;;19.20;99.90;;;;;;5095269;28;20107;-68
2022/08/05 00:13:21;;;;;;;7.75;3.15;;;19.20;99.90;;;;;;5094858;28;20042;-67
2022/08/05 00:15:46;;;;;;;6.78;3.28;;;19.10;99.90;;;;;;5094970;28;20390;-68
2022/08/05 00:18:12;;;;;;;7.88;3.50;;;19.10;99.90;;;;;;5095167;28;20373;-66
2022/08/05 00:20:37;;;;;;;9.45;2.95;;;19.10;99.90;;;;;;5094832;28;20024;-68
2022/08/05 00:23:03;;;;;;;5.60;2.78;;;19.10;99.90;;;;;;5094880;28;20464;-67
2022/08/05 00:25:28;;;;;;;11.38;3.50;;;19.10;99.90;;;;;;5094967;28;20530;-67
2022/08/05 00:27:54;;;;;;;9.75;3.28;;;19.00;99.90;;;;;;5094762;28;20805;-65
2022/08/05 00:30:19;;;;;;;7.47;2.95;;;19.00;99.90;;;;;;5093369;28;20028;-67
2022/08/05 00:32:45;;;;;;;7.80;2.70;;;19.00;99.90;;;;;;5094540;28;20028;-69
2022/08/05 00:35:11;;;;;;;7.88;3.08;;;19.00;99.90;;;;;;5094309;28;20074;-69
2022/08/05 00:37:36;;;;;;;8.00;3.10;;;19.00;99.90;;;;;;5094537;28;20031;-66
2022/08/05 00:40:02;;;;;;;8.13;3.08;;;19.00;99.90;;;;;;5094413;28;20024;-66
2022/08/05 00:42:32;;;;;;;9.10;3.08;;;19.00;99.90;;;;;;5094397;28;20012;-67
2022/08/05 00:44:58;;;;;;;7.22;3.08;;;19.00;99.90;;;;;;5094481;28;20020;-67
2022/08/05 00:47:23;;;;;;;8.63;3.53;;;19.00;99.90;;;;;;5094504;28;20034;-67
2022/08/05 00:49:49;;;;;;;8.55;3.17;;;18.90;99.90;;;;;;5094439;28;20016;-70
2022/08/05 00:52:14;;;;;;;10.68;3.58;;;18.90;99.90;;;;;;5094054;28;20335;-69
2022/08/05 00:54:40;;;;;;;13.73;3.40;;;18.80;99.90;;;;;;5094495;28;20024;-67
2022/08/05 00:57:06;;;;;;;10.48;3.22;;;18.80;99.90;;;;;;5093447;28;20048;-69
2022/08/05 00:59:31;;;;;;;6.97;2.70;;;18.80;99.90;;;;;;5093996;28;20044;-71
2022/08/05 01:01:57;;;;;;;8.38;3.50;;;18.80;99.90;;;;;;5093744;28;20148;-66
2022/08/05 01:04:22;;;;;;;5.88;3.10;;;18.80;99.90;;;;;;5091985;28;20039;-67
2022/08/05 01:06:48;;;;;;;12.60;3.58;;;18.70;99.90;;;;;;5093533;28;20020;-68
2022/08/05 01:09:13;;;;;;;5.65;2.80;;;18.70;99.90;;;;;;5092214;28;20382;-66
2022/08/05 01:11:40;;;;;;;8.30;3.30;;;18.60;99.90;;;;;;5092545;28;20016;-66
2022/08/05 01:14:13;;;;;;;8.68;2.85;;;18.60;99.90;;;;;;5093514;28;20023;-67
2022/08/05 01:16:51;;;;;;;9.27;3.45;;;18.60;99.90;;;;;;5093720;28;20074;-67
2022/08/05 01:19:22;;;;;;;6.80;2.92;;;18.50;99.90;;;;;;5094113;28;20114;-68
2022/08/05 01:22:09;;;;;;;7.13;2.67;;;18.50;99.90;;;;;;5094753;28;20016;-67
2022/08/05 01:24:58;;;;;;;10.05;3.38;;;18.50;99.90;;;;;;5093637;28;20026;-71
2022/08/05 01:27:41;;;;;;;9.70;2.92;;;18.40;99.90;;;;;;5091568;28;20020;-68
2022/08/05 01:30:07;;;;;;;7.68;3.28;;;18.40;99.90;;;;;;5091672;28;20027;-67
2022/08/05 01:32:35;;;;;;;7.55;3.00;;;18.40;99.90;;;;;;5091464;28;20032;-67
2022/08/05 01:35:08;;;;;;;11.25;3.55;;;18.30;99.90;;;;;;5093350;28;20141;-67
2022/08/05 01:37:46;;;;;;;12.05;3.30;;;18.40;99.90;;;;;;5092605;28;20031;-69
2022/08/05 01:40:14;;;;;;;7.28;3.33;;;18.30;99.90;;;;;;5092226;28;20461;-68
2022/08/05 01:42:43;;;;;;;6.38;2.97;;;18.30;99.90;;;;;;5094335;28;20024;-68
2022/08/05 01:45:09;;;;;;;9.35;3.38;;;18.30;99.90;;;;;;5093815;28;20402;-70
2022/08/05 01:47:37;;;;;;;8.82;3.20;;;18.30;99.90;;;;;;5093111;28;20020;-67
2022/08/05 01:50:05;;;;;;;9.80;3.35;;;18.30;99.90;;;;;;5092403;28;20034;-68
2022/08/05 01:52:33;;;;;;;7.63;3.00;;;18.20;99.90;;;;;;5092898;28;20021;-67
2022/08/05 01:55:04;;;;;;;7.68;3.00;;;18.30;99.90;;;;;;5092904;28;20016;-68
2022/08/05 01:57:38;;;;;;;7.05;3.20;;;18.20;99.90;;;;;;5090724;28;20064;-66
2022/08/05 02:00:05;;;;;;;8.90;3.15;;;18.20;99.90;;;;;;5090418;28;20119;-68
2022/08/05 02:02:32;;;;;;;8.38;3.05;;;18.20;99.90;;;;;;5092282;28;20023;-67
2022/08/05 02:05:02;;;;;;;8.27;3.03;;;18.20;99.90;;;;;;5092100;28;20020;-68
2022/08/05 02:07:29;;;;;;;8.75;3.22;;;18.20;99.90;;;;;;5092131;28;20016;-70
2022/08/05 02:09:55;;;;;;;7.90;3.35;;;18.10;99.90;;;;;;5091307;28;20052;-67
2022/08/05 02:12:26;;;;;;;10.82;3.22;;;18.10;99.90;;;;;;5091100;28;20039;-66
2022/08/05 02:15:01;;;;;;;10.82;3.03;;;18.10;99.90;;;;;;5092708;28;20213;-69
2022/08/05 02:17:44;;;;;;;5.45;2.72;;;18.10;99.90;;;;;;5090735;28;20094;-68
2022/08/05 02:20:15;;;;;;;7.80;3.35;;;18.00;99.90;;;;;;5090947;28;20030;-68
2022/08/05 02:22:43;;;;;;;6.35;2.90;;;18.00;99.90;;;;;;5089692;28;20012;-67
2022/08/05 02:25:23;;;;;;;11.35;2.80;;;18.00;99.90;;;;;;5090658;28;20152;-70
2022/08/05 02:27:50;;;;;;;6.10;2.75;;;18.00;99.90;;;;;;5090646;28;20047;-68
2022/08/05 02:30:16;;;;;;;6.88;3.13;;;18.00;99.90;;;;;;5091905;28;20334;-66
2022/08/05 02:32:45;;;;;;;6.45;2.70;;;18.00;99.90;;;;;;5091811;28;20019;-70
2022/08/05 02:35:14;;;;;;;5.80;2.80;;;17.90;99.90;;;;;;5092448;28;20027;-67
2022/08/05 02:37:41;;;;;;;8.10;2.92;;;18.00;99.90;;;;;;5089060;28;20027;-66
2022/08/05 02:40:09;;;;;;;5.35;2.72;;;17.90;99.90;;;;;;5091913;28;20028;-66
2022/08/05 02:42:35;;;;;;;5.10;2.55;;;17.90;99.90;;;;;;5092082;28;20024;-67
2022/08/05 02:45:02;;;;;;;8.25;3.33;;;17.90;99.90;;;;;;5089075;28;20408;-67
2022/08/05 02:47:30;;;;;;;8.90;3.05;;;17.90;99.90;;;;;;5091190;28;20031;-66
2022/08/05 02:49:57;;;;;;;7.57;2.63;;;17.90;99.90;;;;;;5091967;28;20012;-67
2022/08/05 02:52:23;;;;;;;6.00;2.55;;;17.80;99.90;;;;;;5091805;28;20012;-68
2022/08/05 02:54:50;;;;;;;7.55;3.00;;;17.80;99.90;;;;;;5091544;28;20059;-66
2022/08/05 02:57:18;;;;;;;9.13;3.08;;;17.80;99.90;;;;;;5091225;28;20429;-66
2022/08/05 02:59:49;;;;;;;9.23;3.17;;;17.80;99.90;;;;;;5091618;28;20365;-67
2022/08/05 03:02:18;;;;;;;5.63;2.60;;;17.80;99.90;;;;;;5091473;28;20115;-68
2022/08/05 03:04:45;;;;;;;5.50;2.47;;;17.70;99.90;;;;;;5091604;28;20017;-70
2022/08/05 03:07:12;;;;;;;7.03;2.65;;;17.70;99.90;;;;;;5092873;28;20020;-67
2022/08/05 03:09:40;;;;;;;6.53;2.40;;;17.70;99.90;;;;;;5093034;28;20365;-68
2022/08/05 03:12:06;;;;;;;5.93;2.50;;;17.60;99.90;;;;;;5092571;28;20084;-67
2022/08/05 03:14:32;;;;;;;2.78;2.20;;;17.60;99.90;;;;;;5092927;28;20012;-68
2022/08/05 03:16:59;;;;;;;7.18;2.67;;;17.60;99.90;;;;;;5092736;28;20502;-70
2022/08/05 03:19:25;;;;;;;10.45;2.63;;;17.60;99.90;;;;;;5092874;28;20074;-67
2022/08/05 03:21:50;;;;;;;10.20;3.83;;;17.60;99.90;;;;;;5096505;28;20016;-67
2022/08/05 03:24:18;;;;;;;6.07;2.63;;;17.60;99.90;;;;;;5097196;28;20026;-66
2022/08/05 03:26:43;;;;;;;7.05;2.25;;;17.50;99.90;;;;;;5097216;28;20031;-66
2022/08/05 03:29:09;;;;;;;4.78;1.98;;;17.50;99.90;;;;;;5096793;28;20028;-66
2022/08/05 03:31:35;;;;;;;4.65;2.53;;;17.50;99.90;;;;;;5095913;28;20391;-72
2022/08/05 03:34:00;;;;;;;3.90;2.38;;;17.40;99.90;;;;;;5097117;28;20024;-67
2022/08/05 03:36:26;;;;;;;7.47;2.63;;;17.40;99.90;;;;;;5096649;28;20361;-67
2022/08/05 03:38:52;;;;;;;6.18;2.25;;;17.40;99.90;;;;;;5095973;28;20039;-66
2022/08/05 03:41:17;;;;;;;7.07;2.40;;;17.30;99.90;;;;;;5096667;28;20028;-67
2022/08/05 03:43:43;;;;;;;7.55;2.60;;;17.30;99.90;;;;;;5090253;28;20434;-66
2022/08/05 03:46:08;;;;;;;5.43;2.30;;;17.30;99.90;;;;;;5083580;28;20024;-68
2022/08/05 03:48:34;;;;;;;4.40;2.35;;;17.20;99.90;;;;;;5094979;28;20028;-68
2022/08/05 03:51:04;;;;;;;6.57;2.30;;;17.20;99.90;;;;;;5096060;28;20016;-70
2022/08/05 03:53:35;;;;;;;14.75;6.45;;;17.20;99.90;;;;;;5096102;28;20022;-68
2022/08/05 03:56:41;;;;;;;6.35;2.40;;;17.10;99.90;;;;;;5095601;28;20020;-70
2022/08/05 03:59:13;;;;;;;6.20;2.15;;;17.10;99.90;;;;;;5053054;28;20047;-67
2022/08/05 04:01:41;;;;;;;;;;;17.10;99.90;;;;;;5090974;28;20028;-68
2022/08/05 04:04:09;;;;;;;8.85;2.72;;;17.10;99.90;;;;;;5096072;28;19900;-67
2022/08/05 04:06:35;;;;;;;4.57;1.90;;;17.00;99.90;;;;;;5094680;28;20024;-70
2022/08/05 04:09:04;;;;;;;8.02;2.75;;;17.00;99.90;;;;;;5096003;28;20107;-67
2022/08/05 04:11:31;;;;;;;4.43;2.50;;;17.00;99.90;;;;;;5095678;28;20046;-67
2022/08/05 04:13:58;;;;;;;4.72;2.05;;;16.90;99.90;;;;;;5095664;28;20342;-67
2022/08/05 04:16:24;;;;;;;7.47;2.75;;;16.90;99.90;;;;;;5095981;28;20028;-68
2022/08/05 04:18:49;;;;;;;7.32;2.50;;;16.80;99.90;;;;;;5094325;28;20123;-67
2022/08/05 04:21:15;;;;;;;6.53;2.53;;;16.80;99.90;;;;;;5095811;28;20104;-70
2022/08/05 04:23:42;;;;;;;9.55;4.40;;;16.80;99.90;;;;;;5095709;28;20048;-67
2022/08/05 04:26:08;;;;;;;6.95;3.03;;;16.80;99.90;;;;;;5094731;28;20016;-67
2022/08/05 04:28:33;;;;;;;9.57;3.67;;;16.80;99.90;;;;;;5093747;28;20027;-69
2022/08/05 04:30:59;;;;;;;6.90;2.85;;;16.70;99.90;;;;;;5095420;28;20091;-69
2022/08/05 04:33:25;;;;;;;8.88;3.00;;;16.70;99.90;;;;;;5094590;28;20103;-68
2022/08/05 04:35:51;;;;;;;6.00;2.55;;;16.70;99.90;;;;;;5095188;28;20024;-67
2022/08/05 04:38:17;;;;;;;6.28;3.20;;;16.60;99.90;;;;;;5094795;28;20039;-67
2022/08/05 04:40:42;;;;;;;4.63;2.28;;;16.60;99.90;;;;;;5088477;28;20024;-67
2022/08/05 04:43:08;;;;;;;7.40;2.75;;;16.60;99.90;;;;;;5081148;28;20107;-66
2022/08/05 04:45:34;;;;;;;6.10;2.60;;;16.60;99.90;;;;;;5094729;28;20016;-67
2022/08/05 04:48:04;;;;;;;7.60;2.80;;;16.60;99.90;;;;;;5095022;28;20044;-70
2022/08/05 04:50:30;;;;;;;3.08;2.22;;;16.60;99.90;;;;;;5094938;28;20024;-71
2022/08/05 04:52:55;;;;;;;6.13;2.88;;;16.60;99.90;;;;;;5094929;28;20016;-66
2022/08/05 04:55:21;;;;;;;7.40;2.20;;;16.60;99.90;;;;;;5094807;28;20028;-67
2022/08/05 04:57:46;;;;;;;4.60;2.15;;;16.60;99.90;;;;;;5094594;28;20135;-67
2022/08/05 05:00:12;;;;;;;4.70;2.33;;;16.60;99.90;;;;;;5074515;28;20028;-67
2022/08/05 05:02:38;;;;;;;5.05;1.92;;;16.70;99.90;;;;;;5095336;28;20105;-68
2022/08/05 05:05:04;;;;;;;6.35;2.45;;;16.70;99.90;;;;;;5094892;28;20060;-65
2022/08/05 05:07:30;;;;;;;2.78;1.92;;;16.70;99.90;;;;;;5093539;28;20058;-66
2022/08/05 05:09:56;;;;;;;6.20;3.30;;;16.80;99.90;;;;;;5095111;28;20142;-66
2022/08/05 05:12:22;;;;;;;11.15;2.75;;;16.80;99.90;;;;;;5094918;28;20020;-66
2022/08/05 05:14:47;;;;;;;4.82;2.20;;;16.90;99.90;;;;;;5094986;28;20023;-66
2022/08/05 05:17:13;;;;;;;4.88;2.28;;;17.00;99.90;;;;;;5082170;28;20024;-67
2022/08/05 05:19:39;;;;;;;4.32;2.40;;;17.10;99.90;;;;;;5073585;28;20466;-66
2022/08/05 05:22:06;;;;;;;4.80;1.90;;;17.20;99.90;;;;;;5073003;28;20141;-66
2022/08/05 05:24:31;;;;;;;8.43;2.28;;;17.30;99.90;;;;;;5093876;28;20024;-66
2022/08/05 05:26:57;;;;;;;3.80;1.70;;;17.40;99.90;;;;;;5094986;28;20035;-67
2022/08/05 05:29:22;;;;;;;1.83;1.60;;;17.50;99.90;;;;;;5093902;28;20060;-69
2022/08/05 05:31:48;;;;;;;6.60;1.90;;;17.60;99.90;;;;;;5094199;28;20024;-68
2022/08/05 05:34:14;;;;;;;2.92;1.73;;;17.70;99.90;;;;;;5094515;28;20016;-69
2022/08/05 05:36:39;;;;;;;4.57;1.73;;;17.80;99.90;;;;;;5094597;28;20019;-69
2022/08/05 05:39:05;;;;;;;2.72;1.60;;;17.90;99.90;;;;;;5094474;28;20406;-71
2022/08/05 05:41:31;;;;;;;3.63;1.73;;;18.00;99.90;;;;;;5094152;28;20016;-67
2022/08/05 05:43:57;;;;;;;3.15;1.38;;;18.10;99.90;;;;;;5094636;28;20103;-68
2022/08/05 05:46:23;;;;;;;1.90;1.25;;;18.20;99.90;;;;;;5094241;28;20036;-71
2022/08/05 05:48:48;;;;;;;3.20;1.30;;;18.30;99.90;;;;;;5093689;28;20103;-69
2022/08/05 05:51:32;;;;;;;5.07;1.50;;;18.40;99.90;;;;;;5094250;28;20028;-67
2022/08/05 05:53:58;;;;;;;4.45;1.20;;;18.50;99.90;;;;;;5092954;28;20058;-68
2022/08/05 05:56:24;;;;;;;2.75;1.90;;;18.60;99.90;;;;;;5094108;28;20032;-68
2022/08/05 05:58:49;;;;;;;3.10;1.30;;;18.70;99.90;;;;;;5093960;28;20044;-68
2022/08/05 06:01:15;;;;;;;2.10;1.10;;;18.90;99.90;;;;;;5093440;28;20399;-68
2022/08/05 06:03:41;;;;;;;4.40;1.30;;;19.00;99.90;;;;;;5092540;28;20020;-71
2022/08/05 06:06:07;;;;;;;4.80;1.17;;;19.20;99.90;;;;;;5093069;28;20566;-67
2022/08/05 06:08:32;;;;;;;3.63;1.00;;;19.30;99.90;;;;;;5094268;28;20396;-67
2022/08/05 06:10:58;;;;;;;3.05;1.20;;;19.50;99.90;;;;;;5094174;28;20030;-67
2022/08/05 06:13:23;;;;;;;4.20;1.27;;;19.70;99.90;;;;;;5093621;28;20467;-72
2022/08/05 06:15:49;;;;;;;3.92;1.30;;;19.90;99.90;;;;;;5093312;28;20023;-70
2022/08/05 06:18:14;;;;;;;3.08;1.10;;;20.20;99.90;;;;;;5093478;28;20067;-70
2022/08/05 06:20:40;;;;;;;1.52;0.60;;;20.70;99.90;;;;;;5093873;28;20422;-70
2022/08/05 06:23:05;;;;;;;3.28;1.42;;;21.30;99.90;;;;;;5093687;28;20466;-67
2022/08/05 06:25:31;;;;;;;1.35;0.88;;;22.00;99.90;;;;;;5093835;28;20038;-69
2022/08/05 06:27:57;;;;;;;2.65;0.90;;;22.60;99.90;;;;;;5093521;28;20104;-67
2022/08/05 06:30:25;;;;;;;3.33;0.90;;;23.30;99.10;;;;;;5093187;28;20107;-69
2022/08/05 06:32:51;;;;;;;2.97;0.90;;;23.80;98.30;;;;;;5093521;28;20032;-69
2022/08/05 06:35:17;;;;;;;3.90;0.88;;;24.00;97.60;;;;;;5093884;28;20357;-67
2022/08/05 06:37:42;;;;;;;3.17;0.60;;;24.00;97.80;;;;;;5092136;28;20099;-67
2022/08/05 06:40:08;;;;;;;4.75;0.82;;;24.20;97.20;;;;;;5093541;28;20112;-68
2022/08/05 06:42:35;;;;;;;2.00;0.60;;;24.70;96.70;;;;;;5093308;28;20035;-67
2022/08/05 06:45:00;;;;;;;5.63;0.88;;;25.30;95.60;;;;;;5092912;28;20028;-67
2022/08/05 06:47:26;;;;;;;2.67;0.95;;;25.50;95.10;;;;;;5093747;28;20031;-70
2022/08/05 06:49:51;;;;;;;4.28;0.77;;;25.40;94.50;;;;;;5093640;28;20028;-65
2022/08/05 06:52:17;;;;;;;1.85;0.70;;;25.30;95.00;;;;;;5093487;28;20081;-66
2022/08/05 06:54:42;;;;;;;2.80;0.90;;;25.40;94.70;;;;;;5092855;28;20051;-65
2022/08/05 06:57:08;;;;;;;2.78;0.63;;;25.10;94.80;;;;;;5091617;28;20039;-65
2022/08/05 06:59:33;;;;;;;2.83;0.90;;;24.70;95.20;;;;;;5093102;28;20043;-66
2022/08/05 07:01:59;;;;;;;2.78;1.15;;;24.60;95.50;;;;;;5092886;28;20028;-66
2022/08/05 07:04:24;;;;;;;4.57;1.00;;;24.40;95.60;;;;;;5093133;28;20027;-66
2022/08/05 07:06:50;;;;;;;3.35;0.95;;;24.30;95.40;;;;;;5093079;28;20028;-68
2022/08/05 07:09:15;;;;;;;1.63;0.80;;;24.50;95.00;;;;;;5092862;28;20031;-67
2022/08/05 07:11:41;;;;;;;1.80;0.70;;;24.80;94.10;;;;;;5091642;28;20024;-67
2022/08/05 07:16:51;;;;;;;1.55;1.08;;;25.10;90.20;;;;;;5092934;28;20084;-67
2022/08/05 07:19:18;;;;;;;4.60;0.68;;;24.90;89.10;;;;;;5092845;28;20115;-66
2022/08/05 07:21:45;;;;;;;4.05;0.77;;;25.10;89.00;;;;;;5092786;28;20028;-67
2022/08/05 07:24:11;;;;;;;2.95;0.90;;;25.20;88.60;;;;;;5092787;28;20031;-69
2022/08/05 07:26:37;;;;;;;1.75;0.60;;;24.90;89.20;;;;;;5092581;28;20024;-66
2022/08/05 07:29:02;;;;;;;3.35;0.80;;;24.60;88.20;;;;;;5092886;28;20024;-70
2022/08/05 07:31:28;;;;;;;2.40;0.63;;;24.30;88.70;;;;;;5092865;28;20020;-69
2022/08/05 07:33:54;;;;;;;3.58;0.70;;;24.20;88.90;;;;;;5092733;28;20115;-66
2022/08/05 07:36:19;;;;;;;3.45;0.90;;;24.00;88.40;;;;;;5092839;28;20442;-70
2022/08/05 07:38:45;;;;;;;1.92;0.70;;;24.00;87.80;;;;;;5092893;28;20473;-67
2022/08/05 07:41:16;;;;;;;3.63;1.63;;;23.90;87.70;;;;;;5092560;28;20012;-67
2022/08/05 07:43:41;;;;;;;4.10;1.42;;;23.90;86.30;;;;;;5092821;28;20028;-70
2022/08/05 07:46:07;;;;;;;3.60;1.00;;;23.90;85.20;;;;;;5092660;28;20033;-68
2022/08/05 07:48:33;;;;;;;1.20;0.73;;;23.90;86.30;;;;;;5092607;28;20028;-67
2022/08/05 07:50:59;;;;;;;3.22;0.90;;;23.90;88.30;;;;;;5092634;28;20020;-69
2022/08/05 07:53:24;;;;;;;4.00;0.80;;;23.80;89.00;;;;;;5092762;28;20495;-71
2022/08/05 07:55:50;;;;;;;2.47;0.77;;;23.80;89.00;;;;;;5092439;28;20032;-67
2022/08/05 07:58:16;;;;;;;5.22;0.98;;;23.70;88.50;;;;;;5092609;28;20048;-67
2022/08/05 08:00:42;;;;;;;1.10;0.75;;;23.50;88.90;;;;;;5092715;28;20353;-68
2022/08/05 08:03:11;;;;;;;2.83;0.65;;;23.40;89.30;;;;;;5092529;28;20020;-67
2022/08/05 08:05:38;;;;;;;3.63;0.98;;;23.20;90.00;;;;;;5092968;28;20023;-66
2022/08/05 08:08:04;;;;;;;2.47;0.70;;;23.10;90.50;;;;;;5094892;28;20521;-67
2022/08/05 08:10:29;;;;;;;4.15;0.80;;;23.00;89.80;;;;;;5095833;28;20106;-71
2022/08/05 08:12:55;;;;;;;3.20;0.52;;;23.00;89.30;;;;;;5096244;28;20361;-69
2022/08/05 08:15:20;;;;;;;2.72;0.98;;;23.00;89.70;;;;;;5096349;28;20030;-68
2022/08/05 08:17:46;;;;;;;2.05;0.80;;;23.10;88.00;;;;;;5096226;28;20117;-71
2022/08/05 08:20:12;;;;;;;2.05;0.95;;;23.30;87.50;;;;;;5096171;28;20060;-72
2022/08/05 08:22:37;;;;;;;4.93;1.13;;;23.40;88.30;;;;;;5096151;28;20016;-71
2022/08/05 08:25:04;;;;;;;2.38;0.55;;;23.50;86.50;;;;;;5095805;28;20028;-67
2022/08/05 08:27:31;;;;;;;2.17;0.60;;;23.60;85.60;;;;;;5096144;28;20051;-71
2022/08/05 08:29:57;;;;;;;1.67;0.73;;;23.80;84.40;;;;;;5095745;28;20077;-67
2022/08/05 08:32:22;;;;;;;4.57;1.05;;;23.90;83.70;;;;;;5095638;28;20024;-70
2022/08/05 08:34:48;;;;;;;1.65;0.55;;;24.10;83.30;;;;;;5095734;28;20449;-68
2022/08/05 08:37:15;;;;;;;2.85;0.98;;;24.10;82.50;;;;;;5095817;28;20081;-68
2022/08/05 08:39:41;;;;;;;1.55;0.77;;;24.10;83.60;;;;;;5095197;28;20068;-68
2022/08/05 08:42:08;;;;;;;3.33;1.33;;;24.20;84.60;;;;;;5095611;28;20062;-68
2022/08/05 08:44:35;;;;;;;3.25;0.90;;;24.10;82.90;;;;;;5095420;28;20331;-67
2022/08/05 08:47:03;;;;;;;1.75;0.60;;;24.00;82.80;;;;;;5095095;28;20024;-70
2022/08/05 08:49:33;;;;;;;2.78;0.80;;;23.90;81.10;;;;;;5095544;28;20052;-67
2022/08/05 08:52:09;;;;;;;4.03;1.08;;;23.80;82.20;;;;;;5095285;28;20099;-68
2022/08/05 08:54:35;;;;;;;3.40;0.88;;;23.70;82.10;;;;;;5094938;28;20418;-69
2022/08/05 08:57:01;;;;;;;2.40;0.88;;;23.70;81.00;;;;;;5094916;28;20082;-68
2022/08/05 08:59:27;;;;;;;4.25;1.00;;;23.50;80.00;;;;;;5095085;28;20119;-68
2022/08/05 09:01:53;;;;;;;2.15;0.82;;;23.40;81.50;;;;;;5094968;28;20059;-69
2022/08/05 09:04:19;;;;;;;1.20;0.70;;;23.30;81.80;;;;;;5094787;28;20458;-69
2022/08/05 09:06:45;;;;;;;4.75;1.17;;;23.30;81.70;;;;;;5094683;28;20020;-66
2022/08/05 09:09:10;;;;;;;2.55;0.73;;;23.10;82.00;;;;;;5094979;28;20369;-67
2022/08/05 09:11:36;;;;;;;4.80;0.85;;;23.00;82.60;;;;;;5095305;28;20028;-67
2022/08/05 09:14:02;;;;;;;2.33;0.93;;;22.90;83.40;;;;;;5095422;28;20050;-68
2022/08/05 09:16:28;;;;;;;2.45;1.00;;;22.70;83.90;;;;;;5094954;28;20052;-66
2022/08/05 09:18:53;;;;;;;6.45;1.00;;;22.60;84.40;;;;;;5094555;28;20036;-67
2022/08/05 09:21:21;;;;;;;3.42;0.88;;;22.60;85.20;;;;;;5094832;28;20020;-67
2022/08/05 09:24:00;;;;;;;5.13;1.00;;;22.50;85.90;;;;;;5094419;28;20020;-70
2022/08/05 09:26:26;;;;;;;6.22;1.38;;;22.40;86.60;;;;;;5077259;28;20020;-67
2022/08/05 09:28:57;;;;;;;2.42;0.90;;;22.40;87.30;;;;;;5092704;28;20023;-67
2022/08/05 09:31:23;;;;;;;4.13;1.17;;;22.30;87.70;;;;;;5094752;28;20474;-66
2022/08/05 09:33:51;;;;;;;9.20;1.35;;;22.40;88.50;;;;;;5094562;28;20028;-67
2022/08/05 09:36:17;;;;;;;3.47;1.23;;;22.40;88.90;;;;;;5094885;28;20047;-68
2022/08/05 09:38:57;;;;;;;4.50;1.00;;;22.60;88.60;;;;;;5094543;28;20261;-66
2022/08/05 09:41:23;;;;;;;2.85;1.05;;;22.60;88.90;;;;;;5094404;28;20016;-70
2022/08/05 09:43:48;;;;;;;6.10;1.08;;;22.70;89.30;;;;;;5094698;28;20026;-68
2022/08/05 09:46:29;;;;;;;2.80;1.00;;;22.70;89.30;;;;;;5094350;28;20077;-67
2022/08/05 09:48:56;;;;;;;1.58;0.70;;;22.70;89.70;;;;;;5094412;28;20027;-66
2022/08/05 09:51:33;;;;;;;4.80;0.60;;;22.70;90.10;;;;;;5094228;28;20024;-68
2022/08/05 09:53:59;;;;;;;2.10;0.50;;;22.70;90.50;;;;;;5094350;28;20027;-68
2022/08/05 09:56:29;;;;;;;2.92;0.50;;;22.70;90.10;;;;;;5094323;28;20032;-67
2022/08/05 09:59:01;;;;;;;2.35;1.00;;;22.80;89.70;;;;;;5094316;28;20044;-67
2022/08/05 10:01:28;;;;;;;3.60;0.75;;;22.80;89.60;;;;;;5094330;28;20024;-68
2022/08/05 10:03:59;;;;;;;3.95;0.60;;;22.90;89.10;;;;;;5093994;28;20039;-68
2022/08/05 10:06:28;;;;;;;3.73;0.70;;;23.00;88.80;;;;;;5094325;28;20016;-67
2022/08/05 10:08:54;;;;;;;2.78;0.95;;;23.10;89.00;;;;;;5093974;28;20077;-67
2022/08/05 10:11:20;;;;;;;3.60;0.60;;;23.20;88.80;;;;;;5093820;28;20020;-68
2022/08/05 10:13:46;;;;;;;1.33;0.50;;;23.30;87.90;;;;;;5094179;28;20350;-67
2022/08/05 10:16:32;;;;;;;1.65;0.60;;;23.30;88.80;;;;;;5094002;28;20032;-66
2022/08/05 10:18:59;;;;;;;2.50;0.60;;;23.40;90.10;;;;;;5094221;28;20104;-67
2022/08/05 10:21:24;;;;;;;1.38;0.68;;;23.60;90.00;;;;;;5093862;28;20024;-68
2022/08/05 10:23:50;;;;;;;1.45;0.40;;;23.70;89.70;;;;;;5090276;28;20027;-69
2022/08/05 10:26:16;;;;;;;2.72;0.60;;;23.70;89.70;;;;;;5078592;28;20028;-68
2022/08/05 10:28:43;;;;;;;6.03;0.50;;;23.80;88.70;;;;;;5090571;28;20016;-66
2022/08/05 10:31:11;;;;;;;2.38;0.47;;;23.90;88.60;;;;;;5092951;28;20020;-66
2022/08/05 10:33:38;;;;;;;2.72;0.40;;;24.00;88.40;;;;;;5093595;28;20031;-70
2022/08/05 10:36:04;;;;;;;2.45;0.55;;;24.00;87.50;;;;;;5093407;28;20052;-67
2022/08/05 10:38:32;;;;;;;3.15;0.60;;;24.10;87.80;;;;;;5081759;28;20040;-70
2022/08/05 10:41:07;;;;;;;2.10;0.40;;;24.10;87.90;;;;;;5084422;28;20024;-67
2022/08/05 10:43:49;;;;;;;3.88;1.38;;;24.00;88.80;;;;;;5093828;28;20411;-66
2022/08/05 10:46:16;;;;;;;1.38;0.50;;;23.90;89.10;;;;;;5093545;28;20031;-67
2022/08/05 10:48:44;;;;;;;4.20;0.90;;;23.90;88.60;;;;;;5093509;28;20028;-66
2022/08/05 10:51:14;;;;;;;4.30;0.70;;;24.00;88.40;;;;;;5093411;28;20066;-67
2022/08/05 10:53:58;;;;;;;1.02;0.68;;;24.00;88.50;;;;;;5093743;28;20110;-70
2022/08/05 10:56:42;;;;;;;5.15;0.85;;;24.10;88.90;;;;;;5093068;28;20034;-67
2022/08/05 10:59:08;;;;;;;2.22;0.80;;;24.30;88.60;;;;;;5072645;28;20466;-69
2022/08/05 11:01:41;;;;;;;3.30;0.80;;;24.50;88.70;;;;;;5073064;28;20123;-66
2022/08/05 11:04:10;;;;;;;;;;;24.70;88.20;;;;;;5073595;28;20107;-66
2022/08/05 11:06:59;;;;;;;2.65;0.70;;;24.90;87.40;;;;;;5073008;28;19982;-67
2022/08/05 11:09:35;;;;;;;3.45;0.88;;;25.10;87.10;;;;;;5069012;28;20484;-69
2022/08/05 11:12:01;;;;;;;3.00;0.60;;;25.40;86.40;;;;;;5073351;28;20028;-66
2022/08/05 11:14:35;;;;;;;4.35;0.60;;;25.50;85.20;;;;;;5073217;28;20017;-70
2022/08/05 11:17:23;;;;;;;1.70;0.52;;;25.60;84.70;;;;;;5073212;28;20369;-70
2022/08/05 11:19:48;;;;;;;2.40;0.45;;;25.80;84.70;;;;;;5072876;28;20419;-68
2022/08/05 11:22:42;;;;;;;1.73;0.47;;;26.40;84.30;;;;;;5073231;28;20027;-67
2022/08/05 11:25:32;;;;;;;3.17;0.60;;;26.90;83.50;;;;;;5070304;28;20123;-67
2022/08/05 11:28:12;;;;;;;6.13;0.75;;;27.00;81.70;;;;;;5073020;28;20021;-66
2022/08/05 11:30:56;;;;;;;4.03;0.60;;;27.20;81.10;;;;;;5072910;28;20034;-67
2022/08/05 11:33:36;;;;;;;5.85;0.90;;;27.40;80.00;;;;;;5072802;28;20036;-70
2022/08/05 11:36:07;;;;;;;1.15;0.60;;;27.80;79.30;;;;;;5072323;28;20104;-67
2022/08/05 11:38:41;;;;;;;3.53;0.65;;;27.90;79.90;;;;;;5072783;28;20107;-71
2022/08/05 11:41:20;;;;;;;1.33;0.63;;;28.00;79.70;;;;;;5072949;28;20036;-67
2022/08/05 11:44:03;;;;;;;1.27;0.50;;;27.80;77.50;;;;;;5076662;28;20424;-69
2022/08/05 11:46:36;;;;;;;0.77;0.35;;;27.60;78.30;;;;;;5076683;28;20020;-71
2022/08/05 11:49:04;;;;;;;1.20;0.50;;;27.50;78.20;;;;;;5076338;28;20025;-70
2022/08/05 11:51:30;;;;;;;0.50;0.35;;;27.40;78.60;;;;;;5075980;28;20016;-67
2022/08/05 11:53:55;;;;;;;2.83;1.55;;;27.40;78.60;;;;;;5076091;28;20098;-67
2022/08/05 11:56:22;;;;;;;3.17;1.33;;;27.30;78.70;;;;;;5076245;28;20078;-65
2022/08/05 11:58:48;;;;;;;2.78;0.90;;;27.30;79.10;;;;;;5075945;28;20063;-67
2022/08/05 12:01:16;;;;;;;3.10;0.95;;;27.30;79.20;;;;;;5076202;28;20040;-67
2022/08/05 12:03:53;;;;;;;3.35;0.80;;;27.30;79.80;;;;;;5075187;28;20555;-66
2022/08/05 12:06:23;;;;;;;3.08;0.80;;;27.30;79.00;;;;;;5075990;28;20477;-67
2022/08/05 12:08:54;;;;;;;2.60;0.52;;;27.40;79.50;;;;;;5075718;28;20103;-69
2022/08/05 12:11:25;;;;;;;3.67;0.93;;;27.40;78.60;;;;;;5090526;28;20020;-67
2022/08/05 12:14:03;;;;;;;3.17;0.50;;;27.40;77.80;;;;;;5094639;28;20051;-67
2022/08/05 12:16:39;;;;;;;1.77;0.38;;;27.30;77.70;;;;;;5094501;28;20107;-70
2022/08/05 12:19:07;;;;;;;2.35;0.52;;;27.80;76.50;;;;;;5094538;28;20048;-69
2022/08/05 12:21:35;;;;;;;0.47;0.30;;;28.90;74.70;;;;;;5092004;28;20020;-66
2022/08/05 12:24:04;;;;;;;2.17;0.43;;;29.80;72.90;;;;;;5094970;28;20107;-71
2022/08/05 12:26:45;;;;;;;2.83;0.60;;;30.30;72.70;;;;;;5093633;28;20046;-71
2022/08/05 12:29:22;;;;;;;3.57;0.63;;;31.30;71.40;;;;;;5094262;28;20461;-69
2022/08/05 12:31:56;;;;;;;0.90;0.30;;;31.50;70.20;;;;;;5094213;28;20717;-67
2022/08/05 12:34:35;;;;;;;2.28;0.40;;;31.90;68.20;;;;;;5094278;28;20012;-67
2022/08/05 12:37:09;;;;;;;3.03;0.65;;;32.50;68.10;;;;;;5091473;28;20016;-69
2022/08/05 12:39:38;;;;;;;2.10;0.60;;;33.20;66.70;;;;;;5091409;28;20043;-67
2022/08/05 12:42:18;;;;;;;2.42;0.55;;;33.50;65.60;;;;;;5094229;28;20020;-67
2022/08/05 12:44:44;;;;;;;3.63;0.47;;;33.60;65.70;;;;;;5094105;28;20024;-68
2022/08/05 12:47:11;;;;;;;2.85;0.50;;;33.00;65.00;;;;;;5094388;28;20018;-68
2022/08/05 12:49:50;;;;;;;0.77;0.30;;;32.80;65.40;;;;;;5093822;28;20031;-67
2022/08/05 12:52:17;;;;;;;3.15;0.50;;;32.20;65.00;;;;;;5091872;28;20069;-71
2022/08/05 12:54:46;;;;;;;2.78;0.40;;;31.70;65.80;;;;;;5093700;28;20065;-67
2022/08/05 12:57:12;;;;;;;0.75;0.30;;;31.10;66.20;;;;;;5094079;28;20075;-70